createdAt,value
2023-05-09T00:02:24.435Z,18.30
2023-05-09T00:05:53.260Z,19.10
2023-05-09T00:09:20.205Z,17.70
2023-05-09T00:12:47.548Z,14.80
2023-05-09T00:16:14.751Z,15.70
2023-05-09T00:19:41.424Z,16.10
2023-05-09T00:23:08.723Z,16.70
2023-05-09T00:26:36.226Z,14.60
2023-05-09T00:30:03.288Z,16.20
2023-05-09T00:33:30.499Z,19.50
2023-05-09T00:36:57.610Z,18.10
2023-05-09T00:40:24.873Z,16.20
2023-05-09T00:43:51.779Z,18.20
2023-05-09T00:47:18.606Z,19.20
2023-05-09T00:50:46.651Z,18.70
2023-05-09T00:54:13.976Z,21.30
2023-05-09T00:57:41.260Z,19.30
2023-05-09T01:01:09.645Z,23.90
2023-05-09T01:04:36.735Z,19.50
2023-05-09T01:08:12.745Z,19.80
2023-05-09T01:11:43.986Z,16.80
2023-05-09T01:15:18.978Z,19.40
2023-05-09T01:18:53.225Z,16.70
2023-05-09T01:25:56.786Z,18.60
2023-05-09T01:29:38.292Z,16.20
2023-05-09T01:33:08.147Z,15.50
2023-05-09T01:36:36.808Z,17.50
2023-05-09T01:40:10.268Z,16.90
2023-05-09T01:43:40.235Z,16.90
2023-05-09T01:47:08.483Z,18.20
2023-05-09T01:50:37.055Z,21.40
2023-05-09T01:54:08.325Z,22.40
2023-05-09T01:57:37.304Z,20.30
2023-05-09T02:01:05.239Z,22.50
2023-05-09T02:04:32.662Z,21.30
2023-05-09T02:08:01.091Z,22.00
2023-05-09T02:11:28.564Z,19.60
2023-05-09T02:14:55.460Z,25.10
2023-05-09T02:18:23.222Z,21.90
2023-05-09T02:21:50.649Z,20.80
2023-05-09T02:25:19.076Z,22.40
2023-05-09T02:28:48.660Z,21.20
2023-05-09T02:32:18.671Z,27.50
2023-05-09T02:35:47.719Z,19.80
2023-05-09T02:39:15.336Z,23.50
2023-05-09T02:42:42.229Z,23.70
2023-05-09T02:46:09.117Z,29.10
2023-05-09T02:49:36.030Z,23.90
2023-05-09T02:53:03.261Z,26.20
2023-05-09T02:56:30.254Z,22.70
2023-05-09T02:59:57.003Z,23.50
2023-05-09T03:03:25.688Z,23.10
2023-05-09T03:06:53.782Z,25.60
2023-05-09T03:10:21.133Z,25.30
2023-05-09T03:13:47.759Z,25.90
2023-05-09T03:17:17.616Z,24.40
2023-05-09T03:20:44.808Z,22.80
2023-05-09T03:24:11.870Z,25.00
2023-05-09T03:27:38.871Z,27.00
2023-05-09T03:31:08.301Z,26.80
2023-05-09T03:34:35.388Z,30.00
2023-05-09T03:38:02.779Z,29.40
2023-05-09T03:41:30.775Z,29.50
2023-05-09T03:44:58.524Z,33.70
2023-05-09T03:48:25.597Z,33.10
2023-05-09T03:51:52.540Z,33.50
2023-05-09T03:55:19.509Z,29.40
2023-05-09T03:58:46.830Z,28.60
2023-05-09T04:02:14.842Z,27.90
2023-05-09T04:05:46.208Z,28.10
2023-05-09T04:09:21.919Z,27.70
2023-05-09T04:12:49.520Z,25.80
2023-05-09T04:16:17.334Z,28.40
2023-05-09T04:19:44.056Z,28.80
2023-05-09T04:23:10.922Z,28.40
2023-05-09T04:26:39.334Z,30.30
2023-05-09T04:30:10.741Z,26.60
2023-05-09T04:33:39.610Z,30.40
2023-05-09T04:37:06.920Z,26.00
2023-05-09T04:40:37.280Z,25.90
2023-05-09T04:44:05.343Z,27.40
2023-05-09T04:47:32.213Z,26.80
2023-05-09T04:50:59.511Z,29.80
2023-05-09T04:54:26.289Z,24.40
2023-05-09T04:57:53.797Z,22.50
2023-05-09T05:01:21.032Z,22.50
2023-05-09T05:04:49.071Z,23.30
2023-05-09T05:08:16.644Z,24.40
2023-05-09T05:11:53.214Z,24.90
2023-05-09T05:15:27.045Z,22.60
2023-05-09T05:18:54.274Z,19.80
2023-05-09T05:22:23.369Z,20.70
2023-05-09T05:25:50.891Z,20.40
2023-05-09T05:29:19.150Z,25.70
2023-05-09T05:32:47.653Z,19.90
2023-05-09T05:36:17.828Z,22.90
2023-05-09T05:39:44.588Z,22.80
2023-05-09T05:43:13.424Z,27.20
2023-05-09T05:46:40.733Z,17.40
2023-05-09T05:50:17.755Z,18.20
2023-05-09T05:53:48.647Z,22.60
2023-05-09T05:57:16.491Z,16.20
2023-05-09T06:00:44.202Z,13.40
2023-05-09T06:04:10.938Z,12.80
2023-05-09T06:07:38.195Z,16.80
2023-05-09T06:11:06.307Z,10.70
2023-05-09T06:14:33.553Z,9.90
2023-05-09T06:18:00.787Z,16.40
2023-05-09T06:21:27.710Z,13.90
2023-05-09T06:24:54.532Z,11.70
2023-05-09T06:28:21.853Z,13.60
2023-05-09T06:31:49.740Z,13.40
2023-05-09T06:35:17.740Z,13.90
2023-05-09T06:38:44.908Z,15.30
2023-05-09T06:42:12.102Z,10.60
2023-05-09T06:45:39.373Z,11.40
2023-05-09T06:49:07.504Z,12.80
2023-05-09T06:52:34.494Z,9.80
2023-05-09T06:56:00.983Z,8.50
2023-05-09T06:59:28.337Z,9.30
2023-05-09T07:02:55.438Z,12.60
2023-05-09T07:06:22.868Z,12.20
2023-05-09T07:09:52.969Z,6.80
2023-05-09T07:13:22.840Z,10.40
2023-05-09T07:16:49.983Z,11.00
2023-05-09T07:20:17.445Z,10.30
2023-05-09T07:23:46.033Z,9.70
2023-05-09T07:27:13.296Z,8.00
2023-05-09T07:30:40.433Z,7.80
2023-05-09T07:34:07.441Z,5.90
2023-05-09T07:37:35.212Z,8.90
2023-05-09T07:41:02.787Z,12.70
2023-05-09T07:44:29.700Z,7.10
2023-05-09T07:47:59.180Z,7.70
2023-05-09T07:51:27.265Z,7.90
2023-05-09T07:54:54.943Z,7.60
2023-05-09T07:58:21.948Z,7.70
2023-05-09T08:01:49.176Z,6.60
2023-05-09T08:05:16.671Z,6.10
2023-05-09T08:08:44.858Z,5.70
2023-05-09T08:12:13.195Z,6.10
2023-05-09T08:15:40.513Z,5.20
2023-05-09T08:19:07.707Z,4.70
2023-05-09T08:22:37.853Z,6.10
2023-05-09T08:26:05.210Z,5.20
2023-05-09T08:29:33.444Z,11.80
2023-05-09T08:33:02.152Z,7.80
2023-05-09T08:36:29.129Z,7.30
2023-05-09T08:39:56.534Z,11.40
2023-05-09T08:43:25.295Z,7.00
2023-05-09T08:46:58.348Z,5.90
2023-05-09T08:50:28.103Z,6.60
2023-05-09T08:53:55.575Z,5.50
2023-05-09T08:57:22.221Z,5.80
2023-05-09T09:00:50.543Z,7.80
2023-05-09T09:04:17.710Z,5.10
2023-05-09T09:07:46.732Z,6.50
2023-05-09T09:11:17.499Z,14.20
2023-05-09T09:14:49.324Z,7.30
2023-05-09T09:18:22.350Z,3.60
2023-05-09T09:25:14.551Z,8.00
2023-05-09T09:28:42.286Z,8.20
2023-05-09T09:32:10.133Z,5.10
2023-05-09T09:35:43.761Z,5.10
2023-05-09T09:39:10.898Z,7.50
2023-05-09T09:42:45.896Z,3.00
2023-05-09T09:46:16.590Z,5.10
2023-05-09T09:49:49.397Z,4.80
2023-05-09T09:53:16.657Z,12.30
2023-05-09T09:56:46.297Z,3.50
2023-05-09T10:00:16.948Z,4.50
2023-05-09T10:03:46.447Z,7.20
2023-05-09T10:07:15.085Z,9.20
2023-05-09T10:10:46.852Z,9.40
2023-05-09T10:14:13.772Z,5.20
2023-05-09T10:17:41.269Z,8.10
2023-05-09T10:21:14.362Z,4.10
2023-05-09T10:24:48.624Z,5.30
2023-05-09T10:28:20.198Z,5.70
2023-05-09T10:31:49.035Z,9.10
2023-05-09T10:35:34.275Z,5.20
2023-05-09T10:39:07.892Z,5.20
2023-05-09T10:42:38.527Z,4.10
2023-05-09T10:46:09.265Z,10.40
2023-05-09T10:49:38.320Z,5.90
2023-05-09T10:53:18.604Z,5.80
2023-05-09T10:56:45.693Z,5.70
2023-05-09T11:00:15.218Z,6.10
2023-05-09T11:03:59.034Z,7.20
2023-05-09T11:07:30.503Z,6.00
2023-05-09T11:11:01.590Z,13.60
2023-05-09T11:14:48.188Z,4.50
2023-05-09T11:18:16.217Z,4.40
2023-05-09T11:22:03.908Z,10.10
2023-05-09T11:25:45.179Z,5.70
2023-05-09T11:29:14.092Z,4.60
2023-05-09T11:32:47.768Z,4.70
2023-05-09T11:36:25.862Z,4.30
2023-05-09T11:40:05.044Z,7.40
2023-05-09T11:43:32.157Z,7.20
2023-05-09T11:47:01.194Z,10.70
2023-05-09T11:50:28.259Z,6.70
2023-05-09T11:53:56.387Z,7.20
2023-05-09T11:57:24.129Z,6.30
2023-05-09T12:00:53.999Z,5.90
2023-05-09T12:04:22.419Z,6.80
2023-05-09T12:07:50.387Z,6.40
2023-05-09T12:11:17.671Z,5.90
2023-05-09T12:14:57.005Z,7.30
2023-05-09T12:18:42.659Z,3.80
2023-05-09T12:22:14.729Z,10.30
2023-05-09T12:25:47.962Z,10.50
2023-05-09T12:29:16.298Z,3.50
2023-05-09T12:32:44.009Z,11.10
2023-05-09T12:36:13.959Z,4.80
2023-05-09T12:39:40.634Z,2.80
2023-05-09T12:43:31.482Z,5.50
2023-05-09T12:47:15.448Z,5.10
2023-05-09T12:50:51.712Z,7.30
2023-05-09T12:54:25.886Z,5.40
2023-05-09T12:58:03.600Z,3.70
2023-05-09T13:01:33.827Z,6.00
2023-05-09T13:05:24.534Z,14.50
2023-05-09T13:09:03.353Z,4.80
2023-05-09T13:12:31.086Z,4.50
2023-05-09T13:15:58.084Z,5.80
2023-05-09T13:19:25.020Z,3.20
2023-05-09T13:22:51.682Z,5.90
2023-05-09T13:26:19.488Z,4.70
2023-05-09T13:29:48.526Z,7.80
2023-05-09T13:33:25.276Z,8.20
2023-05-09T13:36:58.183Z,6.30
2023-05-09T13:40:28.014Z,4.30
2023-05-09T13:43:56.963Z,6.70
2023-05-09T13:47:26.812Z,7.60
2023-05-09T13:50:57.809Z,7.90
2023-05-09T13:54:24.743Z,5.40
2023-05-09T13:57:52.263Z,4.10
2023-05-09T14:01:19.425Z,4.20
2023-05-09T14:04:46.612Z,8.10
2023-05-09T14:08:14.057Z,4.60
2023-05-09T14:11:44.926Z,3.40
2023-05-09T14:15:12.970Z,4.30
2023-05-09T14:18:39.978Z,10.10
2023-05-09T14:22:07.029Z,3.40
2023-05-09T14:25:34.266Z,8.80
2023-05-09T14:29:03.785Z,8.20
2023-05-09T14:32:30.998Z,6.40
2023-05-09T14:35:57.797Z,5.60
2023-05-09T14:39:26.396Z,6.90
2023-05-09T14:42:54.565Z,6.20
2023-05-09T14:46:21.129Z,7.90
2023-05-09T14:49:48.196Z,5.20
2023-05-09T14:53:15.621Z,10.60
2023-05-09T14:56:42.373Z,10.50
2023-05-09T15:00:21.950Z,4.40
2023-05-09T15:03:50.305Z,5.50
2023-05-09T15:07:17.032Z,13.70
2023-05-09T15:10:44.282Z,7.00
2023-05-09T15:14:11.253Z,8.60
2023-05-09T15:17:38.690Z,4.80
2023-05-09T15:21:05.969Z,4.00
2023-05-09T15:24:33.145Z,4.70
2023-05-09T15:28:00.219Z,5.20
2023-05-09T15:31:27.487Z,7.30
2023-05-09T15:34:54.843Z,4.80
2023-05-09T15:38:21.288Z,6.30
2023-05-09T15:41:48.052Z,6.10
2023-05-09T15:45:16.015Z,4.80
2023-05-09T15:48:43.414Z,7.00
2023-05-09T15:52:11.740Z,6.70
2023-05-09T15:55:38.916Z,11.10
2023-05-09T15:59:05.789Z,7.40
2023-05-09T16:02:33.120Z,4.50
2023-05-09T16:06:01.666Z,5.60
2023-05-09T16:09:28.803Z,6.00
2023-05-09T16:12:56.168Z,8.70
2023-05-09T16:16:23.722Z,9.10
2023-05-09T16:19:51.068Z,5.60
2023-05-09T16:23:17.758Z,4.50
2023-05-09T16:26:44.458Z,7.60
2023-05-09T16:30:13.927Z,9.00
2023-05-09T16:33:41.742Z,5.20
2023-05-09T16:37:08.764Z,8.40
2023-05-09T16:40:35.408Z,4.10
2023-05-09T16:44:03.361Z,8.00
2023-05-09T16:47:30.915Z,5.90
2023-05-09T16:51:00.351Z,6.20
2023-05-09T16:54:27.573Z,8.50
2023-05-09T16:57:54.505Z,6.50
2023-05-09T17:01:21.593Z,4.70
2023-05-09T17:04:49.107Z,8.80
2023-05-09T17:08:16.862Z,3.20
2023-05-09T17:11:43.981Z,4.70
2023-05-09T17:15:14.037Z,6.50
2023-05-09T17:18:46.199Z,3.90
2023-05-09T17:22:13.227Z,7.40
2023-05-09T17:25:40.261Z,3.30
2023-05-09T17:29:07.350Z,5.60
2023-05-09T17:32:35.011Z,3.50
2023-05-09T17:36:02.931Z,8.40
2023-05-09T17:39:31.461Z,4.40
2023-05-09T17:42:58.522Z,4.20
2023-05-09T17:46:28.509Z,9.80
2023-05-09T17:49:55.908Z,14.30
2023-05-09T17:53:27.978Z,11.70
2023-05-09T17:57:00.032Z,6.90
2023-05-09T18:00:27.570Z,7.20
2023-05-09T18:03:54.998Z,6.10
2023-05-09T18:07:24.747Z,4.60
2023-05-09T18:10:55.223Z,5.70
2023-05-09T18:14:27.539Z,8.90
2023-05-09T18:17:59.740Z,7.20
2023-05-09T18:21:26.655Z,4.10
2023-05-09T18:24:53.593Z,5.90
2023-05-09T18:28:25.002Z,6.80
2023-05-09T18:31:51.939Z,7.70
2023-05-09T18:35:19.605Z,5.20
2023-05-09T18:38:48.191Z,6.00
2023-05-09T18:42:16.448Z,3.30
2023-05-09T18:45:45.369Z,5.20
2023-05-09T18:49:12.601Z,7.70
2023-05-09T18:52:39.735Z,4.70
2023-05-09T18:56:08.001Z,7.40
2023-05-09T18:59:34.844Z,6.00
2023-05-09T19:03:01.971Z,5.30
2023-05-09T19:06:29.422Z,7.10
2023-05-09T19:09:56.654Z,7.00
2023-05-09T19:13:24.137Z,8.00
2023-05-09T19:16:51.758Z,9.40
2023-05-09T19:20:19.551Z,7.20
2023-05-09T19:23:49.392Z,4.60
2023-05-09T19:27:18.628Z,8.80
2023-05-09T19:30:48.900Z,8.30
2023-05-09T19:34:16.442Z,8.80
2023-05-09T19:37:44.249Z,7.30
2023-05-09T19:41:14.020Z,7.30
2023-05-09T19:44:41.818Z,8.20
2023-05-09T19:48:15.601Z,6.00
2023-05-09T19:51:43.828Z,6.80
2023-05-09T19:55:12.976Z,6.50
2023-05-09T19:58:41.147Z,9.70
2023-05-09T20:02:08.816Z,9.10
2023-05-09T20:09:22.227Z,9.00
2023-05-09T20:12:49.230Z,8.10
2023-05-09T20:16:16.259Z,8.00
2023-05-09T20:19:43.520Z,7.00
2023-05-09T20:23:10.803Z,6.40
2023-05-09T20:26:37.637Z,12.20
2023-05-09T20:30:04.865Z,6.00
2023-05-09T20:33:32.289Z,9.30
2023-05-09T20:36:59.913Z,8.30
2023-05-09T20:40:26.873Z,10.00
2023-05-09T20:43:56.223Z,7.80
2023-05-09T20:47:23.115Z,8.50
2023-05-09T20:50:50.579Z,7.80
2023-05-09T20:54:20.945Z,11.50
2023-05-09T20:57:48.128Z,11.30
2023-05-09T21:01:15.334Z,9.70
2023-05-09T21:04:41.998Z,9.60
2023-05-09T21:08:12.270Z,9.70
2023-05-09T21:11:40.056Z,9.90
2023-05-09T21:15:09.605Z,7.00
2023-05-09T21:18:38.998Z,8.10
2023-05-09T21:22:05.767Z,7.90
2023-05-09T21:25:32.537Z,8.40
2023-05-09T21:28:59.417Z,8.30
2023-05-09T21:32:26.729Z,8.90
2023-05-09T21:35:54.204Z,9.40
2023-05-09T21:39:21.095Z,9.20
2023-05-09T21:42:50.491Z,7.90
2023-05-09T21:46:20.038Z,10.60
2023-05-09T21:49:47.072Z,7.30
2023-05-09T21:53:13.755Z,8.10
2023-05-09T21:56:42.873Z,11.10
2023-05-09T22:00:14.710Z,7.90
2023-05-09T22:03:42.550Z,13.00
2023-05-09T22:07:12.089Z,8.80
2023-05-09T22:10:39.142Z,8.70
2023-05-09T22:14:06.943Z,9.90
2023-05-09T22:17:34.248Z,7.90
2023-05-09T22:21:02.582Z,8.60
2023-05-09T22:24:29.796Z,7.80
2023-05-09T22:27:56.950Z,8.70
2023-05-09T22:31:23.922Z,9.10
2023-05-09T22:34:51.188Z,8.50
2023-05-09T22:38:18.313Z,10.90
2023-05-09T22:41:45.497Z,10.00
2023-05-09T22:45:14.444Z,7.50
2023-05-09T22:48:41.186Z,8.70
2023-05-09T22:52:08.547Z,9.70
2023-05-09T22:55:35.355Z,10.80
2023-05-09T22:59:02.957Z,7.80
2023-05-09T23:02:30.437Z,13.00
2023-05-09T23:05:57.236Z,10.40
2023-05-09T23:09:25.236Z,10.80
2023-05-09T23:12:52.072Z,7.90
2023-05-09T23:16:19.220Z,9.60
2023-05-09T23:19:46.493Z,8.40
2023-05-09T23:23:15.270Z,11.20
2023-05-09T23:26:45.356Z,9.10
2023-05-09T23:30:13.892Z,7.10
2023-05-09T23:33:43.584Z,9.60
2023-05-09T23:37:10.400Z,7.30
2023-05-09T23:40:38.810Z,9.80
2023-05-09T23:44:07.860Z,7.60
2023-05-09T23:47:35.450Z,8.80
2023-05-09T23:51:02.338Z,8.30
2023-05-09T23:54:29.128Z,8.70
2023-05-09T23:57:56.313Z,10.90
